Time;durP1;ratioP1;P1;durP2;ratioP2;P2;SDS_P1;SDS_P2;PMS_P1;PMS_P2;Temp;Humidity;BMP_temperature;BMP_pressure;BME280_temperature;BME280_humidity;BME280_pressure;Samples;Min_cycle;Max_cycle;Signal;HPM_P1;HPM_P2
2023/03/07 00:02:25;;;;;;;4.63;2.17;;;;;;;;;;5034463;28;20033;-65
2023/03/07 00:04:51;;;;;;;5.93;2.10;;;;;;;;;;5034285;28;20401;-66
2023/03/07 00:07:17;;;;;;;5.80;2.20;;;;;;;;;;5034206;28;20045;-65
2023/03/07 00:09:43;;;;;;;4.03;2.00;;;;;;;;;;5033308;28;20025;-66
2023/03/07 00:12:10;;;;;;;3.65;2.08;;;;;;;;;;5034038;28;20056;-66
2023/03/07 00:14:36;;;;;;;4.45;2.20;;;;;;;;;;5047531;28;20021;-66
2023/03/07 00:17:02;;;;;;;3.83;1.75;;;;;;;;;;5053795;28;20040;-65
2023/03/07 00:19:28;;;;;;;3.85;2.50;;;;;;;;;;5033818;28;20021;-66
2023/03/07 00:21:54;;;;;;;4.63;1.90;;;;;;;;;;5034188;28;20112;-65
2023/03/07 00:24:20;;;;;;;4.20;1.83;;;;;;;;;;5033990;28;20026;-66
2023/03/07 00:26:46;;;;;;;4.25;1.70;;;;;;;;;;5033869;28;20583;-66
2023/03/07 00:29:12;;;;;;;5.18;1.70;;;;;;;;;;5034284;28;20021;-66
2023/03/07 00:31:38;;;;;;;4.63;1.83;;;;;;;;;;5053759;28;20033;-66
2023/03/07 00:34:04;;;;;;;3.80;2.10;;;;;;;;;;5053666;28;20017;-66
2023/03/07 00:36:30;;;;;;;3.33;1.80;;;;;;;;;;5053709;28;20544;-66
2023/03/07 00:38:56;;;;;;;3.60;1.90;;;;;;;;;;5053514;28;20100;-66
2023/03/07 00:41:26;;;;;;;3.08;1.65;;;;;;;;;;5054000;28;20025;-65
2023/03/07 00:43:53;;;;;;;3.75;1.83;;;;;;;;;;5046636;28;20087;-66
2023/03/07 00:46:20;;;;;;;3.08;1.55;;;;;;;;;;5033129;28;20037;-66
2023/03/07 00:48:46;;;;;;;3.30;2.30;;;;;;;;;;5033195;28;20025;-66
2023/03/07 00:51:13;;;;;;;4.40;2.45;;;;;;;;;;5033088;28;20039;-66
2023/03/07 00:53:39;;;;;;;3.17;1.92;;;;;;;;;;5032940;28;20076;-66
2023/03/07 00:56:12;;;;;;;4.25;2.05;;;;;;;;;;5033557;28;20028;-66
2023/03/07 00:58:38;;;;;;;3.60;2.15;;;;;;;;;;5032700;28;20046;-66
2023/03/07 01:01:05;;;;;;;5.05;2.15;;;;;;;;;;5033520;28;20029;-66
2023/03/07 01:03:31;;;;;;;3.83;2.05;;;;;;;;;;5032991;28;20112;-66
2023/03/07 01:05:58;;;;;;;3.17;1.80;;;;;;;;;;5032957;28;20058;-65
2023/03/07 01:08:24;;;;;;;4.82;2.17;;;;;;;;;;5033279;28;20114;-65
2023/03/07 01:10:50;;;;;;;3.22;1.83;;;;;;;;;;5032202;28;20136;-66
2023/03/07 01:13:17;;;;;;;4.03;2.00;;;;;;;;;;5032611;28;20417;-65
2023/03/07 01:15:43;;;;;;;3.00;1.88;;;;;;;;;;5048532;28;20389;-65
2023/03/07 01:18:09;;;;;;;4.32;2.17;;;;;;;;;;5052913;28;20070;-66
2023/03/07 01:20:36;;;;;;;4.35;2.08;;;;;;;;;;5036944;28;20021;-66
2023/03/07 01:23:03;;;;;;;3.83;2.00;;;;;;;;;;5032727;28;20801;-64
2023/03/07 01:25:29;;;;;;;3.78;2.08;;;;;;;;;;5038589;28;20063;-64
2023/03/07 01:27:55;;;;;;;4.28;2.15;;;;;;;;;;5053060;28;20032;-66
2023/03/07 01:30:22;;;;;;;3.83;2.47;;;;;;;;;;5040091;28;20025;-64
2023/03/07 01:32:53;;;;;;;3.00;1.80;;;;;;;;;;5032717;28;20375;-66
2023/03/07 01:35:19;;;;;;;5.32;2.35;;;;;;;;;;5032929;28;20052;-64
2023/03/07 01:37:48;;;;;;;4.85;2.00;;;;;;;;;;5032531;28;20498;-64
2023/03/07 01:40:14;;;;;;;3.67;2.10;;;;;;;;;;5032735;28;20036;-66
2023/03/07 01:42:40;;;;;;;4.63;2.10;;;;;;;;;;5046154;28;20025;-66
2023/03/07 01:45:06;;;;;;;4.35;2.25;;;;;;;;;;5051375;28;20119;-66
2023/03/07 01:47:32;;;;;;;5.47;2.67;;;;;;;;;;5052194;28;20043;-66
2023/03/07 01:50:00;;;;;;;3.45;2.00;;;;;;;;;;5052414;28;20033;-66
2023/03/07 01:52:32;;;;;;;2.67;1.83;;;;;;;;;;5051945;28;20397;-66
2023/03/07 01:54:59;;;;;;;3.60;1.92;;;;;;;;;;5032135;28;20034;-66
2023/03/07 01:57:28;;;;;;;4.78;1.92;;;;;;;;;;5031835;28;20028;-66
2023/03/07 01:59:55;;;;;;;4.53;2.33;;;;;;;;;;5031984;28;20017;-66
2023/03/07 02:02:22;;;;;;;5.63;2.10;;;;;;;;;;5032798;28;20061;-66
2023/03/07 02:04:51;;;;;;;3.20;2.03;;;;;;;;;;5031425;28;20026;-66
2023/03/07 02:07:18;;;;;;;3.45;2.20;;;;;;;;;;5031792;28;20056;-66
2023/03/07 02:09:46;;;;;;;3.53;1.85;;;;;;;;;;5031351;28;20148;-66
2023/03/07 02:12:13;;;;;;;2.97;1.85;;;;;;;;;;5031274;28;20047;-66
2023/03/07 02:14:42;;;;;;;3.05;1.95;;;;;;;;;;5037252;28;20045;-66
2023/03/07 02:17:08;;;;;;;3.33;2.15;;;;;;;;;;5051953;28;20091;-66
2023/03/07 02:19:46;;;;;;;5.03;1.98;;;;;;;;;;5041175;28;20026;-66
2023/03/07 02:22:15;;;;;;;4.65;1.95;;;;;;;;;;5032003;28;20056;-66
2023/03/07 02:24:41;;;;;;;3.75;2.10;;;;;;;;;;5032291;28;20038;-66
2023/03/07 02:27:08;;;;;;;3.65;2.28;;;;;;;;;;5051446;28;20039;-66
2023/03/07 02:29:33;;;;;;;3.47;2.30;;;;;;;;;;5043358;28;20100;-66
2023/03/07 02:31:59;;;;;;;3.42;2.20;;;;;;;;;;5031833;28;20101;-65
2023/03/07 02:34:27;;;;;;;2.90;2.00;;;;;;;;;;5031120;28;20040;-66
2023/03/07 02:36:58;;;;;;;3.42;2.17;;;;;;;;;;5031676;28;20324;-66
2023/03/07 02:39:28;;;;;;;3.92;2.42;;;;;;;;;;5031569;28;20030;-66
2023/03/07 02:41:56;;;;;;;3.75;1.88;;;;;;;;;;5032030;28;20482;-66
2023/03/07 02:44:22;;;;;;;6.90;2.25;;;;;;;;;;5031376;28;20104;-66
2023/03/07 02:46:48;;;;;;;6.80;1.75;;;;;;;;;;5031075;28;20480;-67
2023/03/07 02:49:14;;;;;;;4.43;2.17;;;;;;;;;;5030983;28;20052;-67
2023/03/07 02:51:40;;;;;;;2.75;1.55;;;;;;;;;;5030851;28;20029;-67
2023/03/07 02:54:07;;;;;;;2.42;1.60;;;;;;;;;;5030363;28;20375;-67
2023/03/07 02:56:33;;;;;;;2.90;1.73;;;;;;;;;;5031297;28;20037;-67
2023/03/07 02:58:59;;;;;;;4.25;2.10;;;;;;;;;;5031088;28;20080;-67
2023/03/07 03:01:25;;;;;;;3.17;2.25;;;;;;;;;;5031086;28;20026;-67
2023/03/07 03:03:51;;;;;;;3.30;1.98;;;;;;;;;;5031260;28;20030;-66
2023/03/07 03:06:17;;;;;;;3.00;1.67;;;;;;;;;;5030774;28;20033;-67
2023/03/07 03:08:43;;;;;;;4.03;2.33;;;;;;;;;;5030351;28;20398;-66
2023/03/07 03:11:09;;;;;;;5.35;2.13;;;;;;;;;;5030558;28;20064;-66
2023/03/07 03:13:35;;;;;;;3.00;1.60;;;;;;;;;;5030579;28;20579;-67
2023/03/07 03:16:02;;;;;;;3.97;1.95;;;;;;;;;;5030986;28;20033;-67
2023/03/07 03:18:28;;;;;;;3.83;1.85;;;;;;;;;;5030398;28;20461;-66
2023/03/07 03:20:54;;;;;;;4.65;2.03;;;;;;;;;;5030990;28;20032;-67
2023/03/07 03:23:20;;;;;;;3.63;2.17;;;;;;;;;;5031043;28;20022;-67
2023/03/07 03:25:56;;;;;;;3.25;2.20;;;;;;;;;;5030692;28;20029;-66
2023/03/07 03:28:22;;;;;;;2.65;1.73;;;;;;;;;;5030937;28;20037;-67
2023/03/07 03:30:57;;;;;;;3.65;1.90;;;;;;;;;;5030732;28;20045;-67
2023/03/07 03:33:23;;;;;;;3.30;2.00;;;;;;;;;;5035513;28;20026;-67
2023/03/07 03:35:49;;;;;;;4.20;2.30;;;;;;;;;;5036573;28;20029;-67
2023/03/07 03:38:15;;;;;;;2.92;2.08;;;;;;;;;;5052136;28;20135;-66
2023/03/07 03:40:41;;;;;;;3.03;1.85;;;;;;;;;;5055635;28;20036;-66
2023/03/07 03:43:07;;;;;;;3.85;2.05;;;;;;;;;;5037305;28;20026;-67
2023/03/07 03:45:33;;;;;;;3.90;2.00;;;;;;;;;;5037119;28;20035;-67
2023/03/07 03:47:59;;;;;;;2.75;1.70;;;;;;;;;;5037433;28;20144;-67
2023/03/07 03:50:25;;;;;;;3.00;1.70;;;;;;;;;;5037317;28;20040;-66
2023/03/07 03:52:51;;;;;;;3.25;2.35;;;;;;;;;;5038917;28;20030;-66
2023/03/07 03:55:17;;;;;;;3.33;1.80;;;;;;;;;;5057213;28;20036;-67
2023/03/07 03:57:43;;;;;;;3.88;2.28;;;;;;;;;;5056847;28;20357;-67
2023/03/07 04:00:13;;;;;;;3.80;2.08;;;;;;;;;;5057289;28;20025;-67
2023/03/07 04:02:39;;;;;;;3.55;2.10;;;;;;;;;;5056682;28;20037;-66
2023/03/07 04:05:05;;;;;;;4.13;2.00;;;;;;;;;;5056691;28;20425;-66
2023/03/07 04:07:31;;;;;;;4.30;1.90;;;;;;;;;;5056891;28;20052;-66
2023/03/07 04:09:57;;;;;;;2.90;2.00;;;;;;;;;;5057040;28;20037;-66
2023/03/07 04:12:23;;;;;;;2.65;1.88;;;;;;;;;;5055738;28;20041;-66
2023/03/07 04:14:49;;;;;;;3.30;1.80;;;;;;;;;;5036905;28;20528;-66
2023/03/07 04:17:15;;;;;;;2.92;1.67;;;;;;;;;;5036790;28;20044;-66
2023/03/07 04:19:43;;;;;;;3.60;1.90;;;;;;;;;;5036271;28;20502;-66
2023/03/07 04:22:09;;;;;;;2.83;1.88;;;;;;;;;;5036681;28;20496;-66
2023/03/07 04:24:34;;;;;;;2.47;1.90;;;;;;;;;;5036568;28;20033;-66
2023/03/07 04:27:00;;;;;;;3.33;2.20;;;;;;;;;;5036526;28;20037;-66
2023/03/07 04:29:27;;;;;;;5.13;2.72;;;;;;;;;;5036396;28;20034;-66
2023/03/07 04:31:52;;;;;;;3.58;1.95;;;;;;;;;;5037387;28;20048;-66
2023/03/07 04:34:18;;;;;;;4.35;2.45;;;;;;;;;;5036223;28;20470;-66
2023/03/07 04:36:44;;;;;;;2.35;1.70;;;;;;;;;;5036339;28;20083;-66
2023/03/07 04:39:10;;;;;;;3.13;2.22;;;;;;;;;;5044565;28;20112;-66
2023/03/07 04:41:36;;;;;;;5.55;2.35;;;;;;;;;;5056529;28;20078;-66
2023/03/07 04:44:02;;;;;;;3.08;1.90;;;;;;;;;;5034326;28;20037;-66
2023/03/07 04:46:28;;;;;;;3.45;2.17;;;;;;;;;;5033654;28;20105;-66
2023/03/07 04:48:54;;;;;;;2.85;1.77;;;;;;;;;;5033652;28;20036;-66
2023/03/07 04:51:20;;;;;;;4.47;2.30;;;;;;;;;;5033555;28;20033;-66
2023/03/07 04:53:46;;;;;;;2.78;1.90;;;;;;;;;;5032931;28;20030;-66
2023/03/07 04:56:15;;;;;;;4.93;1.90;;;;;;;;;;5033065;28;20091;-66
2023/03/07 04:58:41;;;;;;;4.47;2.38;;;;;;;;;;5033016;28;20025;-66
2023/03/07 05:01:08;;;;;;;3.10;2.30;;;;;;;;;;5033251;28;20110;-66
2023/03/07 05:03:34;;;;;;;3.72;2.15;;;;;;;;;;5032847;28;20033;-66
2023/03/07 05:06:12;;;;;;;3.00;1.80;;;;;;;;;;5032834;28;20477;-66
2023/03/07 05:08:38;;;;;;;3.13;2.03;;;;;;;;;;5034520;28;20126;-66
2023/03/07 05:11:05;;;;;;;3.55;2.03;;;;;;;;;;5051674;28;20047;-67
2023/03/07 05:13:31;;;;;;;3.60;2.10;;;;;;;;;;5043131;28;20034;-66
2023/03/07 05:15:58;;;;;;;3.95;2.40;;;;;;;;;;5033206;28;20060;-66
2023/03/07 05:18:24;;;;;;;2.55;1.80;;;;;;;;;;5033034;28;20030;-66
2023/03/07 05:20:50;;;;;;;2.55;1.90;;;;;;;;;;5033157;28;20034;-66
2023/03/07 05:23:17;;;;;;;3.15;1.80;;;;;;;;;;5032643;28;20394;-66
2023/03/07 05:25:43;;;;;;;3.45;2.40;;;;;;;;;;5052017;28;20048;-66
2023/03/07 05:28:09;;;;;;;3.03;1.88;;;;;;;;;;5046821;28;20029;-67
2023/03/07 05:30:35;;;;;;;3.05;1.95;;;;;;;;;;5032548;28;20492;-66
2023/03/07 05:33:01;;;;;;;4.05;2.17;;;;;;;;;;5033029;28;20219;-66
2023/03/07 05:35:27;;;;;;;2.80;1.98;;;;;;;;;;5032550;28;20367;-66
2023/03/07 05:37:53;;;;;;;2.78;2.08;;;;;;;;;;5033098;28;20025;-66
2023/03/07 05:40:19;;;;;;;4.50;2.40;;;;;;;;;;5038342;28;20025;-66
2023/03/07 05:42:45;;;;;;;4.47;2.08;;;;;;;;;;5052456;28;20505;-66
2023/03/07 05:45:11;;;;;;;4.13;2.10;;;;;;;;;;5052306;28;20033;-66
2023/03/07 05:47:37;;;;;;;4.60;1.98;;;;;;;;;;5052360;28;20083;-67
2023/03/07 05:50:04;;;;;;;4.38;1.98;;;;;;;;;;5052525;28;20025;-66
2023/03/07 05:52:30;;;;;;;2.78;2.05;;;;;;;;;;5042101;28;20034;-66
2023/03/07 05:54:56;;;;;;;3.95;2.47;;;;;;;;;;5031555;28;20036;-66
2023/03/07 05:57:23;;;;;;;2.63;1.75;;;;;;;;;;5032509;28;20478;-66
2023/03/07 05:59:49;;;;;;;3.13;1.67;;;;;;;;;;5032319;28;20022;-66
2023/03/07 06:02:15;;;;;;;3.38;2.35;;;;;;;;;;5031955;28;20137;-66
2023/03/07 06:04:41;;;;;;;2.50;1.90;;;;;;;;;;5031944;28;20021;-67
2023/03/07 06:07:07;;;;;;;3.47;2.10;;;;;;;;;;5031546;28;20099;-66
2023/03/07 06:09:33;;;;;;;2.22;1.58;;;;;;;;;;5039982;28;20028;-67
2023/03/07 06:11:59;;;;;;;3.70;2.25;;;;;;;;;;5035774;28;20033;-67
2023/03/07 06:14:25;;;;;;;3.97;2.05;;;;;;;;;;5031209;28;20044;-67
2023/03/07 06:16:51;;;;;;;3.22;1.70;;;;;;;;;;5031705;28;20033;-66
2023/03/07 06:19:17;;;;;;;5.15;2.00;;;;;;;;;;5046419;28;20500;-67
2023/03/07 06:21:43;;;;;;;4.78;2.42;;;;;;;;;;5033460;28;20034;-68
2023/03/07 06:24:09;;;;;;;2.55;1.60;;;;;;;;;;5031801;28;20052;-70
2023/03/07 06:26:35;;;;;;;2.72;1.98;;;;;;;;;;5031462;28;20474;-67
2023/03/07 06:29:01;;;;;;;3.05;1.90;;;;;;;;;;5031710;28;20034;-67
2023/03/07 06:31:27;;;;;;;3.78;1.98;;;;;;;;;;5031772;28;20032;-66
2023/03/07 06:33:53;;;;;;;5.03;1.90;;;;;;;;;;5031218;28;20025;-68
2023/03/07 06:36:19;;;;;;;3.47;1.85;;;;;;;;;;5030941;28;20044;-67
2023/03/07 06:38:46;;;;;;;3.28;2.17;;;;;;;;;;5030928;28;20565;-69
2023/03/07 06:41:12;;;;;;;4.03;1.88;;;;;;;;;;5050446;28;20401;-70
2023/03/07 06:43:39;;;;;;;3.92;1.80;;;;;;;;;;5044862;28;20393;-69
2023/03/07 06:46:05;;;;;;;4.38;2.17;;;;;;;;;;5030080;28;20025;-68
2023/03/07 06:48:33;;;;;;;4.78;1.88;;;;;;;;;;5030641;28;20409;-62
2023/03/07 06:50:59;;;;;;;4.93;1.70;;;;;;;;;;5031588;28;20079;-62
2023/03/07 06:53:25;;;;;;;5.88;2.17;;;;;;;;;;5030759;28;20520;-62
2023/03/07 06:55:52;;;;;;;2.90;2.30;;;;;;;;;;5031620;28;20025;-63
2023/03/07 06:58:18;;;;;;;4.30;2.80;;;;;;;;;;5030913;28;20559;-62
2023/03/07 07:00:44;;;;;;;3.88;2.80;;;;;;;;;;5030505;28;20037;-62
2023/03/07 07:03:13;;;;;;;4.65;2.67;;;;;;;;;;5030819;28;20025;-62
2023/03/07 07:05:39;;;;;;;6.60;2.72;;;;;;;;;;5045473;28;20021;-61
2023/03/07 07:08:05;;;;;;;5.05;3.38;;;;;;;;;;5049310;28;20575;-62
2023/03/07 07:10:31;;;;;;;7.00;3.15;;;;;;;;;;5030470;28;20040;-62
2023/03/07 07:12:57;;;;;;;4.18;3.42;;;;;;;;;;5029115;28;20104;-62
2023/03/07 07:15:24;;;;;;;5.25;2.70;;;;;;;;;;5031625;28;20036;-62
2023/03/07 07:17:50;;;;;;;4.43;2.75;;;;;;;;;;5031257;28;20029;-63
2023/03/07 07:20:17;;;;;;;4.20;3.08;;;;;;;;;;5030515;28;20112;-62
2023/03/07 07:22:43;;;;;;;5.45;3.30;;;;;;;;;;5043777;28;20021;-62
2023/03/07 07:25:09;;;;;;;7.50;2.90;;;;;;;;;;5030596;28;20044;-62
2023/03/07 07:27:35;;;;;;;4.45;2.55;;;;;;;;;;5037939;28;20041;-62
2023/03/07 07:30:02;;;;;;;4.50;3.00;;;;;;;;;;5050857;28;20029;-61
2023/03/07 07:32:28;;;;;;;10.85;2.92;;;;;;;;;;5050804;28;20078;-63
2023/03/07 07:34:53;;;;;;;4.35;3.13;;;;;;;;;;5051390;28;20056;-62
2023/03/07 07:37:19;;;;;;;5.10;2.70;;;;;;;;;;5038772;28;20064;-62
2023/03/07 07:39:45;;;;;;;4.10;2.80;;;;;;;;;;5030279;28;20033;-63
2023/03/07 07:42:11;;;;;;;4.75;3.08;;;;;;;;;;5031067;28;20481;-63
2023/03/07 07:44:37;;;;;;;6.70;3.00;;;;;;;;;;5030827;28;20030;-64
2023/03/07 07:47:03;;;;;;;4.75;2.67;;;;;;;;;;5030915;28;20524;-62
2023/03/07 07:49:29;;;;;;;5.70;3.00;;;;;;;;;;5030734;28;20075;-61
2023/03/07 07:51:55;;;;;;;5.03;2.70;;;;;;;;;;5030441;28;20065;-62
2023/03/07 07:54:21;;;;;;;3.63;2.30;;;;;;;;;;5030854;28;20047;-64
2023/03/07 07:56:47;;;;;;;5.85;2.88;;;;;;;;;;5030087;28;20026;-62
2023/03/07 07:59:13;;;;;;;9.10;2.63;;;;;;;;;;5029792;28;20440;-64
2023/03/07 08:01:39;;;;;;;5.00;3.00;;;;;;;;;;5033732;28;20055;-62
2023/03/07 08:04:05;;;;;;;8.43;2.92;;;;;;;;;;5029759;28;20438;-63
2023/03/07 08:06:31;;;;;;;8.23;2.92;;;;;;;;;;5027983;28;20037;-62
2023/03/07 08:08:58;;;;;;;9.05;3.10;;;;;;;;;;5029279;28;20075;-64
2023/03/07 08:11:25;;;;;;;5.63;2.75;;;;;;;;;;5029736;28;20021;-63
2023/03/07 08:13:51;;;;;;;5.07;2.35;;;;;;;;;;5030251;28;20026;-64
2023/03/07 08:16:22;;;;;;;3.47;2.22;;;;;;;;;;5030115;28;20061;-63
2023/03/07 08:18:52;;;;;;;6.65;2.03;;;;;;;;;;5031005;28;20454;-63
2023/03/07 08:21:18;;;;;;;3.75;2.33;;;;;;;;;;5033546;28;20079;-63
2023/03/07 08:23:44;;;;;;;7.65;2.53;;;;;;;;;;5033707;28;20048;-63
2023/03/07 08:26:12;;;;;;;3.42;2.33;;;;;;;;;;5034305;28;20482;-63
2023/03/07 08:28:38;;;;;;;5.15;2.38;;;;;;;;;;5034049;28;20029;-64
2023/03/07 08:31:12;;;;;;;4.35;2.28;;;;;;;;;;5034319;28;20104;-64
2023/03/07 08:33:38;;;;;;;6.13;2.38;;;;;;;;;;5033893;28;20030;-64
2023/03/07 08:36:05;;;;;;;6.30;2.63;;;;;;;;;;5034255;28;20045;-64
2023/03/07 08:38:31;;;;;;;3.58;2.08;;;;;;;;;;5034055;28;20049;-64
2023/03/07 08:41:04;;;;;;;4.05;2.03;;;;;;;;;;5034191;28;20017;-63
2023/03/07 08:43:30;;;;;;;6.43;1.98;;;;;;;;;;5034009;28;20052;-63
2023/03/07 08:45:57;;;;;;;3.72;2.08;;;;;;;;;;5033994;28;20493;-62
2023/03/07 08:48:23;;;;;;;4.28;2.50;;;;;;;;;;5034208;28;20037;-62
2023/03/07 08:50:49;;;;;;;3.42;2.10;;;;;;;;;;5033740;28;20105;-64
2023/03/07 08:53:15;;;;;;;3.70;1.98;;;;;;;;;;5034028;28;20802;-63
2023/03/07 08:55:42;;;;;;;8.30;2.50;;;;;;;;;;5033571;28;20129;-64
2023/03/07 08:58:09;;;;;;;9.32;1.98;;;;;;;;;;5033889;28;20442;-64
2023/03/07 09:00:35;;;;;;;3.85;1.70;;;;;;;;;;5033520;28;20481;-64
2023/03/07 09:03:01;;;;;;;5.65;2.45;;;;;;;;;;5033585;28;20029;-64
2023/03/07 09:05:28;;;;;;;4.38;1.80;;;;;;;;;;5033537;28;20041;-63
2023/03/07 09:07:54;;;;;;;3.78;2.13;;;;;;;;;;5033890;28;20087;-64
2023/03/07 09:10:21;;;;;;;3.28;1.95;;;;;;;;;;5033693;28;20507;-64
2023/03/07 09:12:47;;;;;;;3.65;2.00;;;;;;;;;;5033323;28;20033;-64
2023/03/07 09:15:13;;;;;;;3.70;1.98;;;;;;;;;;5033466;28;20394;-64
2023/03/07 09:17:39;;;;;;;4.07;2.20;;;;;;;;;;5033239;28;20029;-64
2023/03/07 09:20:06;;;;;;;3.88;2.20;;;;;;;;;;5033367;28;20067;-63
2023/03/07 09:22:32;;;;;;;3.25;1.80;;;;;;;;;;5033233;28;20040;-63
2023/03/07 09:24:58;;;;;;;3.80;2.00;;;;;;;;;;5033318;28;20030;-63
2023/03/07 09:27:24;;;;;;;3.90;1.80;;;;;;;;;;5033470;28;20474;-63
2023/03/07 09:29:50;;;;;;;4.32;2.33;;;;;;;;;;5032920;28;20076;-63
2023/03/07 09:32:16;;;;;;;4.97;1.90;;;;;;;;;;5032978;28;20065;-64
2023/03/07 09:34:42;;;;;;;2.95;1.77;;;;;;;;;;5032909;28;20026;-64
2023/03/07 09:37:08;;;;;;;5.00;1.85;;;;;;;;;;5033099;28;20025;-64
2023/03/07 09:39:34;;;;;;;4.72;1.60;;;;;;;;;;5032786;28;20022;-64
2023/03/07 09:42:00;;;;;;;3.55;1.83;;;;;;;;;;5033023;28;20482;-64
2023/03/07 09:44:26;;;;;;;2.15;1.60;;;;;;;;;;5032673;28;20021;-64
2023/03/07 09:46:52;;;;;;;2.67;1.85;;;;;;;;;;5033097;28;20075;-64
2023/03/07 09:49:29;;;;;;;4.28;1.90;;;;;;;;;;5032885;28;20045;-63
2023/03/07 09:51:58;;;;;;;2.28;1.73;;;;;;;;;;5032877;28;20064;-63
2023/03/07 09:54:28;;;;;;;2.55;1.63;;;;;;;;;;5033103;28;20593;-63
2023/03/07 09:56:56;;;;;;;4.53;1.67;;;;;;;;;;5033053;28;20021;-63
2023/03/07 09:59:36;;;;;;;3.05;1.70;;;;;;;;;;5032805;28;20041;-63
2023/03/07 10:02:17;;;;;;;5.32;2.00;;;;;;;;;;5032603;28;20029;-62
2023/03/07 10:04:50;;;;;;;3.05;1.58;;;;;;;;;;5032314;28;20037;-63
2023/03/07 10:07:17;;;;;;;3.20;1.80;;;;;;;;;;5032414;28;20129;-63
2023/03/07 10:09:44;;;;;;;4.20;1.75;;;;;;;;;;5032111;28;20080;-63
2023/03/07 10:12:34;;;;;;;3.63;1.60;;;;;;;;;;5032463;28;20064;-63
2023/03/07 10:15:18;;;;;;;2.35;1.48;;;;;;;;;;5032402;28;20028;-63
2023/03/07 10:17:58;;;;;;;2.72;1.50;;;;;;;;;;5032030;28;20501;-63
2023/03/07 10:20:43;;;;;;;2.20;1.55;;;;;;;;;;5032712;28;20041;-63
2023/03/07 10:23:20;;;;;;;4.40;1.73;;;;;;;;;;5032362;28;20032;-63
2023/03/07 10:26:02;;;;;;;3.38;1.83;;;;;;;;;;5031988;28;20021;-63
2023/03/07 10:28:30;;;;;;;3.08;1.80;;;;;;;;;;5030639;28;20505;-63
2023/03/07 10:31:17;;;;;;;3.50;1.80;;;;;;;;;;5032100;28;20450;-63
2023/03/07 10:33:43;;;;;;;;;;;;;;;;;;5032296;28;20393;-64
2023/03/07 10:36:13;;;;;;;2.88;1.40;;;;;;;;;;5032092;28;19972;-64
2023/03/07 10:38:42;;;;;;;2.30;1.50;;;;;;;;;;5031726;28;20478;-64
2023/03/07 10:41:08;;;;;;;3.25;1.60;;;;;;;;;;5031874;28;20029;-64
2023/03/07 10:43:34;;;;;;;2.33;1.33;;;;;;;;;;5030913;28;20032;-63
2023/03/07 10:46:10;;;;;;;3.65;1.40;;;;;;;;;;5031762;28;20367;-63
2023/03/07 10:48:37;;;;;;;3.22;1.48;;;;;;;;;;5031556;28;20030;-63
2023/03/07 10:51:06;;;;;;;2.05;1.17;;;;;;;;;;5031797;28;20022;-63
2023/03/07 10:53:34;;;;;;;2.22;1.20;;;;;;;;;;5031286;28;20033;-63
2023/03/07 10:56:18;;;;;;;2.88;1.55;;;;;;;;;;5031702;28;20052;-63
2023/03/07 10:59:03;;;;;;;3.05;1.58;;;;;;;;;;5031367;28;20446;-63
2023/03/07 11:01:30;;;;;;;3.75;1.77;;;;;;;;;;5031487;28;20032;-63
2023/03/07 11:03:59;;;;;;;2.55;1.27;;;;;;;;;;5031440;28;20100;-63
2023/03/07 11:06:28;;;;;;;2.70;1.55;;;;;;;;;;5031176;28;20056;-63
2023/03/07 11:08:57;;;;;;;2.80;1.35;;;;;;;;;;5031617;28;20034;-63
2023/03/07 11:11:25;;;;;;;2.67;1.20;;;;;;;;;;5031684;28;20474;-63
2023/03/07 11:14:10;;;;;;;2.40;1.25;;;;;;;;;;5031720;28;20033;-63
2023/03/07 11:16:48;;;;;;;3.05;1.10;;;;;;;;;;5031099;28;20036;-63
2023/03/07 11:19:32;;;;;;;2.15;1.15;;;;;;;;;;5031247;28;20032;-63
2023/03/07 11:21:59;;;;;;;1.58;1.00;;;;;;;;;;5031115;28;20100;-63
2023/03/07 11:24:29;;;;;;;2.35;1.33;;;;;;;;;;5031033;28;20037;-63
2023/03/07 11:26:57;;;;;;;1.83;0.93;;;;;;;;;;5031395;28;20485;-63
2023/03/07 11:29:24;;;;;;;3.42;1.10;;;;;;;;;;5031440;28;20473;-63
2023/03/07 11:32:03;;;;;;;2.60;1.48;;;;;;;;;;5031257;28;20028;-63
2023/03/07 11:34:35;;;;;;;1.85;1.10;;;;;;;;;;5030856;28;20017;-63
2023/03/07 11:37:08;;;;;;;3.28;1.35;;;;;;;;;;5030910;28;20116;-63
2023/03/07 11:39:39;;;;;;;3.83;1.60;;;;;;;;;;5031037;28;20109;-63
2023/03/07 11:42:38;;;;;;;2.10;1.13;;;;;;;;;;5031024;28;20036;-64
2023/03/07 11:45:06;;;;;;;2.78;1.15;;;;;;;;;;5029762;28;20037;-63
2023/03/07 11:47:43;;;;;;;2.90;1.40;;;;;;;;;;5030452;28;20049;-63
2023/03/07 11:50:21;;;;;;;1.95;1.10;;;;;;;;;;5030961;28;20021;-63
2023/03/07 11:53:05;;;;;;;2.28;1.27;;;;;;;;;;5030609;28;20058;-63
2023/03/07 11:55:37;;;;;;;2.10;1.38;;;;;;;;;;5034645;28;20080;-63
2023/03/07 11:58:17;;;;;;;2.10;1.20;;;;;;;;;;5034727;28;20039;-63
2023/03/07 12:00:58;;;;;;;2.08;1.17;;;;;;;;;;5034587;28;20070;-63
2023/03/07 12:03:43;;;;;;;2.17;1.20;;;;;;;;;;5035027;28;20408;-63
2023/03/07 12:06:15;;;;;;;3.20;1.35;;;;;;;;;;5034530;28;20034;-63
2023/03/07 12:08:48;;;;;;;2.47;1.00;;;;;;;;;;5034253;28;20044;-63
2023/03/07 12:11:34;;;;;;;2.15;1.20;;;;;;;;;;5034487;28;20032;-63
2023/03/07 12:14:00;;;;;;;2.13;1.30;;;;;;;;;;5034606;28;20469;-63
2023/03/07 12:16:44;;;;;;;1.70;0.90;;;;;;;;;;5034260;28;20063;-63
2023/03/07 12:19:27;;;;;;;2.20;1.25;;;;;;;;;;5034415;28;20478;-63
2023/03/07 12:22:05;;;;;;;1.90;1.20;;;;;;;;;;5034731;28;20029;-64
2023/03/07 12:24:42;;;;;;;2.10;1.30;;;;;;;;;;5034096;28;20029;-63
2023/03/07 12:27:14;;;;;;;2.08;1.15;;;;;;;;;;5034200;28;20041;-63
2023/03/07 12:29:50;;;;;;;2.15;1.27;;;;;;;;;;5033905;28;20026;-63
2023/03/07 12:32:19;;;;;;;1.88;1.15;;;;;;;;;;5034192;28;20022;-64
2023/03/07 12:34:53;;;;;;;1.95;0.98;;;;;;;;;;5033884;28;20040;-63
2023/03/07 12:37:27;;;;;;;3.78;1.05;;;;;;;;;;5034190;28;20515;-63
2023/03/07 12:39:53;;;;;;;2.33;1.33;;;;;;;;;;5034318;28;20378;-64
2023/03/07 12:42:31;;;;;;;3.00;1.35;;;;;;;;;;5034029;28;20076;-64
2023/03/07 12:45:20;;;;;;;1.70;1.08;;;;;;;;;;5033910;28;20391;-64
2023/03/07 12:48:05;;;;;;;2.50;1.33;;;;;;;;;;5033057;28;20079;-63
2023/03/07 12:50:31;;;;;;;2.15;1.20;;;;;;;;;;5033567;28;20388;-64
2023/03/07 12:52:57;;;;;;;1.65;0.95;;;;;;;;;;5033788;28;20028;-63
2023/03/07 12:55:29;;;;;;;2.63;0.90;;;;;;;;;;5033981;28;20025;-63
2023/03/07 12:58:15;;;;;;;3.65;1.45;;;;;;;;;;5033958;28;20094;-64
2023/03/07 13:00:44;;;;;;;2.28;0.85;;;;;;;;;;5031849;28;20470;-64
2023/03/07 13:03:15;;;;;;;2.20;1.15;;;;;;;;;;5033391;28;20026;-63
2023/03/07 13:05:43;;;;;;;2.03;1.20;;;;;;;;;;5032195;28;20025;-64
2023/03/07 13:08:15;;;;;;;1.52;1.02;;;;;;;;;;5033531;28;20036;-64
2023/03/07 13:10:44;;;;;;;1.98;1.00;;;;;;;;;;5033234;28;20196;-64
2023/03/07 13:13:29;;;;;;;1.80;0.90;;;;;;;;;;5033412;28;20029;-64
2023/03/07 13:16:02;;;;;;;1.65;0.90;;;;;;;;;;5033507;28;20022;-64
2023/03/07 13:18:30;;;;;;;1.52;0.90;;;;;;;;;;5033176;28;20022;-64
2023/03/07 13:21:11;;;;;;;1.48;0.82;;;;;;;;;;5033248;28;20056;-63
2023/03/07 13:23:37;;;;;;;1.88;1.27;;;;;;;;;;5033106;28;20064;-64
2023/03/07 13:26:05;;;;;;;2.13;1.17;;;;;;;;;;5033176;28;20057;-64
2023/03/07 13:28:34;;;;;;;2.30;1.05;;;;;;;;;;5032971;28;20493;-64
2023/03/07 13:31:11;;;;;;;1.88;1.00;;;;;;;;;;5033198;28;20033;-63
2023/03/07 13:33:37;;;;;;;2.30;1.05;;;;;;;;;;5032947;28;20025;-63
2023/03/07 13:36:03;;;;;;;1.23;1.00;;;;;;;;;;5032975;28;20029;-63
2023/03/07 13:38:42;;;;;;;1.63;1.05;;;;;;;;;;5032714;28;20037;-63
2023/03/07 13:41:09;;;;;;;1.60;1.17;;;;;;;;;;5032890;28;20019;-64
2023/03/07 13:43:44;;;;;;;1.88;0.98;;;;;;;;;;5032713;28;20433;-63
2023/03/07 13:46:29;;;;;;;1.40;1.00;;;;;;;;;;5032753;28;20026;-63
2023/03/07 13:48:55;;;;;;;2.05;1.40;;;;;;;;;;5032835;28;20025;-63
2023/03/07 13:51:21;;;;;;;2.05;1.13;;;;;;;;;;5033018;28;20035;-63
2023/03/07 13:53:50;;;;;;;1.80;1.27;;;;;;;;;;5032196;28;20022;-63
2023/03/07 13:56:16;;;;;;;1.95;1.10;;;;;;;;;;5032658;28;20033;-63
2023/03/07 13:58:51;;;;;;;2.55;1.20;;;;;;;;;;5032094;28;20033;-63
2023/03/07 14:01:22;;;;;;;1.75;1.10;;;;;;;;;;5032516;28;20478;-63
2023/03/07 14:03:52;;;;;;;2.08;1.30;;;;;;;;;;5032206;28;20025;-63
2023/03/07 14:06:26;;;;;;;2.33;1.20;;;;;;;;;;5032347;28;20036;-63
2023/03/07 14:08:53;;;;;;;1.50;1.10;;;;;;;;;;5032669;28;20045;-63
2023/03/07 14:11:20;;;;;;;1.80;1.30;;;;;;;;;;5032079;28;20026;-63
2023/03/07 14:14:04;;;;;;;1.85;1.30;;;;;;;;;;5031798;28;20612;-63
2023/03/07 14:16:53;;;;;;;1.20;1.00;;;;;;;;;;5031768;28;20057;-63
2023/03/07 14:19:26;;;;;;;1.33;1.23;;;;;;;;;;5031690;28;20502;-63
2023/03/07 14:22:04;;;;;;;2.17;1.35;;;;;;;;;;5032290;28;20478;-63
2023/03/07 14:24:30;;;;;;;2.55;1.38;;;;;;;;;;5031777;28;20032;-63
2023/03/07 14:26:58;;;;;;;2.80;1.55;;;;;;;;;;5031878;28;20041;-63
2023/03/07 14:29:29;;;;;;;1.70;1.30;;;;;;;;;;5032330;28;20021;-63
2023/03/07 14:31:56;;;;;;;1.60;1.20;;;;;;;;;;5032124;28;20033;-63
2023/03/07 14:34:26;;;;;;;2.92;1.30;;;;;;;;;;5032060;28;20025;-64
2023/03/07 14:36:59;;;;;;;2.45;1.40;;;;;;;;;;5032221;28;20033;-64
2023/03/07 14:39:29;;;;;;;1.60;1.38;;;;;;;;;;5031644;28;20026;-63
2023/03/07 14:42:01;;;;;;;1.90;1.27;;;;;;;;;;5032024;28;20499;-63
2023/03/07 14:44:39;;;;;;;2.15;1.35;;;;;;;;;;5031600;28;20052;-63
2023/03/07 14:47:14;;;;;;;1.50;1.30;;;;;;;;;;5031701;28;20037;-64
2023/03/07 14:49:46;;;;;;;1.80;1.50;;;;;;;;;;5031428;28;20387;-63
2023/03/07 14:52:14;;;;;;;1.80;1.30;;;;;;;;;;5031421;28;20025;-63
2023/03/07 14:54:40;;;;;;;1.80;1.30;;;;;;;;;;5031257;28;20466;-64